Time;durP1;ratioP1;P1;durP2;ratioP2;P2;SDS_P1;SDS_P2;PMS_P1;PMS_P2;Temp;Humidity;BMP_temperature;BMP_pressure;BME280_temperature;BME280_humidity;BME280_pressure;Samples;Min_cycle;Max_cycle;Signal;HPM_P1;HPM_P2
2023/06/07 00:01:54;;;;;;;9.52;2.90;;;12.20;99.90;;;;;;5114036;28;20383;-80
2023/06/07 00:04:19;;;;;;;9.95;2.72;;;12.20;99.90;;;;;;5113605;28;20055;-80
2023/06/07 00:06:47;;;;;;;14.23;3.03;;;12.20;99.90;;;;;;5113598;28;20122;-80
2023/06/07 00:09:12;;;;;;;13.07;3.10;;;12.20;99.90;;;;;;5113544;28;20039;-80
2023/06/07 00:11:39;;;;;;;12.48;3.28;;;12.20;99.90;;;;;;5113389;28;20104;-80
2023/06/07 00:14:08;;;;;;;10.85;3.35;;;12.20;99.90;;;;;;5113565;28;20071;-80
2023/06/07 00:16:34;;;;;;;18.67;3.72;;;12.30;99.90;;;;;;5113634;28;20490;-81
2023/06/07 00:19:01;;;;;;;11.13;3.00;;;12.20;99.90;;;;;;5113621;28;20043;-80
2023/06/07 00:21:28;;;;;;;17.25;3.15;;;12.20;99.90;;;;;;5113377;28;20526;-80
2023/06/07 00:23:54;;;;;;;11.75;3.13;;;12.20;99.90;;;;;;5113355;28;20414;-80
2023/06/07 00:26:22;;;;;;;10.05;2.95;;;12.20;99.90;;;;;;5113299;28;20084;-80
2023/06/07 00:28:48;;;;;;;12.98;3.40;;;12.20;99.90;;;;;;5112618;28;20047;-80
2023/06/07 00:31:13;;;;;;;12.40;2.83;;;12.20;99.90;;;;;;5114407;28;20067;-80
2023/06/07 00:33:39;;;;;;;14.75;3.63;;;12.30;99.90;;;;;;5113172;28;20131;-80
2023/06/07 00:36:05;;;;;;;9.52;2.92;;;12.30;99.90;;;;;;5113102;28;20071;-80
2023/06/07 00:38:30;;;;;;;14.38;3.20;;;12.30;99.90;;;;;;5113205;28;20044;-81
2023/06/07 00:40:56;;;;;;;11.75;3.13;;;12.20;99.90;;;;;;5113593;28;20047;-81
2023/06/07 00:43:22;;;;;;;8.70;3.42;;;12.20;99.90;;;;;;5114318;28;20039;-87
2023/06/07 00:45:49;;;;;;;14.73;3.22;;;12.20;99.90;;;;;;5112927;28;20059;-80
2023/06/07 00:48:15;;;;;;;12.88;3.05;;;12.30;99.90;;;;;;5112907;28;20051;-80
2023/06/07 00:50:41;;;;;;;8.95;3.08;;;12.20;99.90;;;;;;5112912;28;20108;-80
2023/06/07 00:53:08;;;;;;;13.52;4.07;;;12.30;99.90;;;;;;5112721;28;20042;-80
2023/06/07 00:55:34;;;;;;;18.60;3.80;;;12.30;99.90;;;;;;5113221;28;20047;-80
2023/06/07 00:58:00;;;;;;;11.48;2.72;;;12.20;99.90;;;;;;5112977;28;20044;-80
2023/06/07 01:00:28;;;;;;;12.68;3.40;;;12.20;99.90;;;;;;5114238;28;20043;-80
2023/06/07 01:02:55;;;;;;;12.98;2.67;;;12.20;99.90;;;;;;5112794;28;20058;-80
2023/06/07 01:05:21;;;;;;;12.65;3.33;;;12.20;99.90;;;;;;5113053;28;20058;-81
2023/06/07 01:07:48;;;;;;;9.38;3.53;;;12.20;99.90;;;;;;5112884;28;20051;-80
2023/06/07 01:10:14;;;;;;;21.10;3.85;;;12.20;99.90;;;;;;5112860;28;20475;-80
2023/06/07 01:12:43;;;;;;;13.40;3.20;;;12.10;99.90;;;;;;5113046;28;20074;-80
2023/06/07 01:15:11;;;;;;;18.02;3.92;;;12.00;99.90;;;;;;5112847;28;20130;-80
2023/06/07 01:17:40;;;;;;;12.05;3.08;;;12.00;99.90;;;;;;5112510;28;20050;-80
2023/06/07 01:20:13;;;;;;;7.72;2.90;;;12.10;99.90;;;;;;5113858;28;20499;-80
2023/06/07 01:22:44;;;;;;;14.70;3.25;;;12.10;99.90;;;;;;5112677;28;20044;-81
2023/06/07 01:25:10;;;;;;;9.50;3.03;;;12.10;99.90;;;;;;5112918;28;20043;-81
2023/06/07 01:27:39;;;;;;;12.27;3.10;;;12.10;99.90;;;;;;5112691;28;20352;-81
2023/06/07 01:30:08;;;;;;;14.60;3.92;;;12.10;99.90;;;;;;5112503;28;20065;-81
2023/06/07 01:32:34;;;;;;;13.93;3.88;;;12.20;99.90;;;;;;5112831;28;20079;-81
2023/06/07 01:35:02;;;;;;;10.50;3.70;;;12.20;99.90;;;;;;5112521;28;20069;-81
2023/06/07 01:37:29;;;;;;;14.10;3.25;;;12.00;99.90;;;;;;5112857;28;20056;-80
2023/06/07 01:39:56;;;;;;;11.13;3.20;;;12.10;99.90;;;;;;5112782;28;20066;-80
2023/06/07 01:42:23;;;;;;;12.15;3.65;;;12.00;99.90;;;;;;5116513;28;20053;-80
2023/06/07 01:44:49;;;;;;;11.77;3.17;;;12.00;99.90;;;;;;5116156;28;20089;-79
2023/06/07 01:47:15;;;;;;;13.30;3.53;;;12.10;99.90;;;;;;5116398;28;20487;-80
2023/06/07 01:49:42;;;;;;;13.23;3.22;;;12.10;99.90;;;;;;5117770;28;20043;-80
2023/06/07 01:52:07;;;;;;;9.45;4.15;;;12.20;99.90;;;;;;5116594;28;20093;-80
2023/06/07 01:54:34;;;;;;;12.90;3.25;;;12.30;99.90;;;;;;5116063;28;20052;-80
2023/06/07 01:57:08;;;;;;;12.07;3.20;;;12.30;99.90;;;;;;5116441;28;20096;-80
2023/06/07 01:59:39;;;;;;;11.70;3.42;;;12.20;99.90;;;;;;5117550;28;20036;-80
2023/06/07 02:02:19;;;;;;;9.35;3.05;;;12.20;99.90;;;;;;5117587;28;20075;-80
2023/06/07 02:04:48;;;;;;;11.60;3.40;;;12.10;99.90;;;;;;5116201;28;20047;-80
2023/06/07 02:07:22;;;;;;;13.88;2.85;;;12.10;99.90;;;;;;5116001;28;20089;-80
2023/06/07 02:09:48;;;;;;;18.70;4.95;;;12.10;99.90;;;;;;5116088;28;20126;-80
2023/06/07 02:12:15;;;;;;;15.73;3.88;;;12.10;99.90;;;;;;5115950;28;20047;-80
2023/06/07 02:14:42;;;;;;;14.65;3.28;;;12.20;99.90;;;;;;5116229;28;20061;-80
2023/06/07 02:17:08;;;;;;;10.45;3.60;;;12.10;99.90;;;;;;5115940;28;20123;-80
2023/06/07 02:19:34;;;;;;;11.75;3.30;;;12.10;99.90;;;;;;5115960;28;20047;-80
2023/06/07 02:22:00;;;;;;;14.02;3.47;;;12.20;99.90;;;;;;5115731;28;20082;-81
2023/06/07 02:24:27;;;;;;;11.75;2.72;;;12.10;99.90;;;;;;5115565;28;20047;-80
2023/06/07 02:26:56;;;;;;;12.20;3.40;;;12.10;99.90;;;;;;5115715;28;20039;-80
2023/06/07 02:29:22;;;;;;;14.00;3.33;;;12.20;99.90;;;;;;5115447;28;20383;-80
2023/06/07 02:31:48;;;;;;;16.25;4.45;;;12.10;99.90;;;;;;5116925;28;20078;-80
2023/06/07 02:34:14;;;;;;;14.85;3.40;;;12.10;99.90;;;;;;5116913;28;20047;-80
2023/06/07 02:36:40;;;;;;;12.45;3.08;;;12.20;99.90;;;;;;5116984;28;20048;-81
2023/06/07 02:39:09;;;;;;;11.13;3.75;;;12.30;99.90;;;;;;5115433;28;20053;-80
2023/06/07 02:41:35;;;;;;;16.35;3.42;;;12.30;99.90;;;;;;5115388;28;20040;-80
2023/06/07 02:44:00;;;;;;;12.43;3.05;;;12.20;99.90;;;;;;5115632;28;20059;-80
2023/06/07 02:46:27;;;;;;;11.93;3.30;;;12.20;99.90;;;;;;5115010;28;20052;-80
2023/06/07 02:48:56;;;;;;;13.13;3.67;;;12.20;99.90;;;;;;5116221;28;20390;-80
2023/06/07 02:51:22;;;;;;;8.40;3.10;;;12.20;99.90;;;;;;5115132;28;20131;-80
2023/06/07 02:53:50;;;;;;;12.48;4.47;;;12.10;99.90;;;;;;5114324;28;20075;-81
2023/06/07 02:56:16;;;;;;;12.63;4.25;;;12.20;99.90;;;;;;5115108;28;20044;-80
2023/06/07 02:58:45;;;;;;;11.35;3.63;;;12.20;99.90;;;;;;5114798;28;20055;-80
2023/06/07 03:01:11;;;;;;;12.02;3.70;;;12.20;99.90;;;;;;5115200;28;20047;-80
2023/06/07 03:03:42;;;;;;;12.60;3.95;;;12.20;99.90;;;;;;5115522;28;20135;-80
2023/06/07 03:06:11;;;;;;;14.77;4.03;;;12.20;99.90;;;;;;5115012;28;20505;-80
2023/06/07 03:08:37;;;;;;;8.38;3.30;;;12.20;99.90;;;;;;5115748;28;20118;-80
2023/06/07 03:11:03;;;;;;;14.98;3.22;;;12.30;99.90;;;;;;5113474;28;20051;-80
2023/06/07 03:13:28;;;;;;;12.90;3.42;;;12.30;99.90;;;;;;5113784;28;20562;-80
2023/06/07 03:15:57;;;;;;;8.88;3.40;;;12.20;99.90;;;;;;5114547;28;20394;-80
2023/06/07 03:18:23;;;;;;;9.50;3.15;;;12.10;99.90;;;;;;5114759;28;20138;-80
2023/06/07 03:20:49;;;;;;;14.98;3.30;;;12.10;99.90;;;;;;5115929;28;20509;-80
2023/06/07 03:23:15;;;;;;;13.57;3.47;;;12.10;99.90;;;;;;5114701;28;20507;-80
2023/06/07 03:25:41;;;;;;;10.25;3.05;;;12.10;99.90;;;;;;5114567;28;20091;-80
2023/06/07 03:28:13;;;;;;;15.90;4.22;;;12.20;99.90;;;;;;5114268;28;20066;-81
2023/06/07 03:30:40;;;;;;;13.35;3.17;;;12.10;99.90;;;;;;5114191;28;20052;-80
2023/06/07 03:33:05;;;;;;;13.15;3.47;;;12.20;99.90;;;;;;5114185;28;20048;-81
2023/06/07 03:35:31;;;;;;;10.43;3.35;;;12.10;99.90;;;;;;5114151;28;20051;-80
2023/06/07 03:37:56;;;;;;;9.95;3.10;;;12.10;99.90;;;;;;5113989;28;20043;-80
2023/06/07 03:40:22;;;;;;;10.70;3.10;;;12.10;99.90;;;;;;5114034;28;20035;-80
2023/06/07 03:42:48;;;;;;;12.82;3.40;;;12.10;99.90;;;;;;5113908;28;20047;-81
2023/06/07 03:45:13;;;;;;;10.75;3.20;;;12.20;99.90;;;;;;5115331;28;20048;-80
2023/06/07 03:47:40;;;;;;;7.68;3.10;;;12.20;99.90;;;;;;5113833;28;20055;-81
2023/06/07 03:50:06;;;;;;;15.77;2.88;;;12.20;99.90;;;;;;5113830;28;20040;-81
2023/06/07 03:52:35;;;;;;;12.27;3.58;;;12.10;99.90;;;;;;5113889;28;20501;-80
2023/06/07 03:55:02;;;;;;;9.68;3.45;;;12.10;99.90;;;;;;5113635;28;20044;-81
2023/06/07 03:57:28;;;;;;;13.98;3.50;;;12.10;99.90;;;;;;5115018;28;20054;-80
2023/06/07 03:59:53;;;;;;;11.95;2.88;;;12.10;99.90;;;;;;5113610;28;20040;-80
2023/06/07 04:02:19;;;;;;;12.65;3.47;;;12.10;99.90;;;;;;5113598;28;20044;-80
2023/06/07 04:04:45;;;;;;;7.82;3.17;;;12.10;99.90;;;;;;5113758;28;20046;-80
2023/06/07 04:07:16;;;;;;;10.50;3.65;;;12.10;99.90;;;;;;5115064;28;20039;-80
2023/06/07 04:09:42;;;;;;;10.68;3.88;;;12.10;99.90;;;;;;5113641;28;20046;-80
2023/06/07 04:12:07;;;;;;;9.80;3.15;;;12.20;99.90;;;;;;5114816;28;20048;-80
2023/06/07 04:14:33;;;;;;;13.68;3.03;;;12.20;99.90;;;;;;5114901;28;20031;-80
2023/06/07 04:17:00;;;;;;;11.70;3.67;;;12.10;99.90;;;;;;5113491;28;20047;-80
2023/06/07 04:19:26;;;;;;;11.57;3.42;;;12.10;99.90;;;;;;5113317;28;20052;-80
2023/06/07 04:21:52;;;;;;;12.80;3.38;;;12.20;99.90;;;;;;5113492;28;20086;-81
2023/06/07 04:24:18;;;;;;;11.88;3.00;;;12.20;99.90;;;;;;5113409;28;20407;-80
2023/06/07 04:26:44;;;;;;;9.77;3.03;;;12.20;99.90;;;;;;5113111;28;20047;-80
2023/06/07 04:29:10;;;;;;;13.98;3.22;;;12.00;99.90;;;;;;5113178;28;20035;-81
2023/06/07 04:31:39;;;;;;;8.80;2.92;;;12.00;99.90;;;;;;5113300;28;20503;-80
2023/06/07 04:34:05;;;;;;;15.95;4.55;;;12.00;99.90;;;;;;5113277;28;20181;-80
2023/06/07 04:36:31;;;;;;;12.35;3.50;;;12.10;99.90;;;;;;5113292;28;20051;-80
2023/06/07 04:39:00;;;;;;;10.73;3.17;;;12.10;99.90;;;;;;5113281;28;20437;-80
2023/06/07 04:41:30;;;;;;;13.68;4.35;;;12.10;99.90;;;;;;5113098;28;20066;-80
2023/06/07 04:44:05;;;;;;;16.00;3.28;;;12.20;99.90;;;;;;5113223;28;20058;-80
2023/06/07 04:46:33;;;;;;;12.35;3.78;;;12.30;99.90;;;;;;5112705;28;20055;-80
2023/06/07 04:49:00;;;;;;;13.57;4.28;;;12.30;99.90;;;;;;5112702;28;20051;-80
2023/06/07 04:51:29;;;;;;;7.88;3.78;;;12.30;99.90;;;;;;5112756;28;20082;-79
2023/06/07 04:53:58;;;;;;;18.58;3.78;;;12.40;99.90;;;;;;5114165;28;20043;-80
2023/06/07 04:56:30;;;;;;;12.88;3.42;;;12.30;99.90;;;;;;5112963;28;20080;-79
2023/06/07 04:58:56;;;;;;;11.45;4.03;;;12.40;99.90;;;;;;5112665;28;20039;-80
2023/06/07 05:01:22;;;;;;;8.75;3.40;;;12.30;99.90;;;;;;5112551;28;20122;-80
2023/06/07 05:03:50;;;;;;;9.85;3.50;;;12.40;99.90;;;;;;5112831;28;20107;-80
2023/06/07 05:06:19;;;;;;;15.32;3.60;;;12.40;99.90;;;;;;5112774;28;20051;-80
2023/06/07 05:08:45;;;;;;;10.20;3.35;;;12.40;99.90;;;;;;5113673;28;20157;-80
2023/06/07 05:11:10;;;;;;;12.73;3.55;;;12.40;99.90;;;;;;5113898;28;20096;-81
2023/06/07 05:13:36;;;;;;;10.05;3.33;;;12.40;99.90;;;;;;5113869;28;20039;-80
2023/06/07 05:16:02;;;;;;;18.25;4.40;;;12.30;99.90;;;;;;5116386;28;20108;-81
2023/06/07 05:18:28;;;;;;;8.75;3.30;;;12.30;99.90;;;;;;5120433;27;20039;-80
2023/06/07 05:20:54;;;;;;;18.00;4.03;;;12.30;99.90;;;;;;5119467;28;20048;-80
2023/06/07 05:23:20;;;;;;;12.45;3.97;;;12.30;99.90;;;;;;5119472;28;20404;-81
2023/06/07 05:25:46;;;;;;;9.80;3.45;;;12.30;99.90;;;;;;5119616;28;20039;-81
2023/06/07 05:28:13;;;;;;;12.18;4.25;;;12.30;99.90;;;;;;5119587;28;20047;-81
2023/06/07 05:30:39;;;;;;;10.20;4.13;;;12.40;99.90;;;;;;5119029;28;20475;-80
2023/06/07 05:33:06;;;;;;;22.70;4.03;;;12.50;99.90;;;;;;5119386;28;20059;-80
2023/06/07 05:35:32;;;;;;;16.13;3.95;;;12.60;99.90;;;;;;5119101;28;20073;-80
2023/06/07 05:37:57;;;;;;;21.55;4.25;;;12.70;99.90;;;;;;5119055;28;20044;-80
2023/06/07 05:40:23;;;;;;;12.70;3.35;;;12.70;99.90;;;;;;5119290;28;20047;-79
2023/06/07 05:42:50;;;;;;;10.23;3.28;;;12.80;99.90;;;;;;5119025;28;20051;-80
2023/06/07 05:45:16;;;;;;;12.18;3.97;;;12.80;99.90;;;;;;5118897;28;20059;-80
2023/06/07 05:47:43;;;;;;;10.60;3.40;;;12.80;99.90;;;;;;5118994;28;20047;-81
2023/06/07 05:50:11;;;;;;;8.70;3.50;;;12.80;99.90;;;;;;5119137;28;20097;-80
2023/06/07 05:52:40;;;;;;;11.88;3.33;;;12.80;99.90;;;;;;5119272;28;20143;-80
2023/06/07 05:55:06;;;;;;;8.45;3.60;;;12.80;99.90;;;;;;5118921;28;20398;-80
2023/06/07 05:57:32;;;;;;;16.58;3.78;;;12.80;99.90;;;;;;5120264;27;20096;-80
2023/06/07 05:59:58;;;;;;;10.82;3.10;;;13.00;99.90;;;;;;5118866;28;20051;-80
2023/06/07 06:02:24;;;;;;;9.10;3.63;;;13.00;99.90;;;;;;5120075;28;20084;-80
2023/06/07 06:04:53;;;;;;;12.35;3.58;;;13.10;99.90;;;;;;5120367;27;20052;-80
2023/06/07 06:07:21;;;;;;;10.13;3.50;;;13.10;99.90;;;;;;5118809;28;20047;-80
2023/06/07 06:09:47;;;;;;;12.88;3.80;;;13.20;99.90;;;;;;5120194;27;20135;-78
2023/06/07 06:12:12;;;;;;;14.13;3.75;;;13.30;99.90;;;;;;5118681;28;20472;-79
2023/06/07 06:14:38;;;;;;;12.15;4.07;;;13.30;99.90;;;;;;5118638;28;20032;-79
2023/06/07 06:17:05;;;;;;;12.35;3.63;;;13.30;99.90;;;;;;5119028;28;20502;-80
2023/06/07 06:19:31;;;;;;;11.63;3.50;;;13.40;99.90;;;;;;5119211;27;20076;-79
2023/06/07 06:21:57;;;;;;;9.63;3.22;;;13.50;99.90;;;;;;5117946;28;20057;-79
2023/06/07 06:24:25;;;;;;;13.80;3.30;;;13.50;99.90;;;;;;5118549;28;20046;-77
2023/06/07 06:26:51;;;;;;;11.98;3.50;;;13.40;99.90;;;;;;5116640;28;20056;-79
2023/06/07 06:29:17;;;;;;;9.15;3.47;;;13.40;99.90;;;;;;5115102;28;20054;-79
2023/06/07 06:31:43;;;;;;;11.68;3.22;;;13.40;99.90;;;;;;5116814;28;20503;-79
2023/06/07 06:34:09;;;;;;;13.30;3.50;;;13.50;99.90;;;;;;5115601;28;20115;-78
2023/06/07 06:36:36;;;;;;;12.77;3.67;;;13.60;99.90;;;;;;5115078;28;20131;-80
2023/06/07 06:39:03;;;;;;;13.98;4.22;;;13.60;99.90;;;;;;5115195;28;20172;-87
2023/06/07 06:41:29;;;;;;;10.60;3.45;;;13.30;99.90;;;;;;5115379;28;20039;-79
2023/06/07 06:43:54;;;;;;;14.52;3.40;;;13.40;99.90;;;;;;5116316;28;20434;-78
2023/06/07 06:46:21;;;;;;;14.15;3.80;;;13.30;99.90;;;;;;5114820;28;20047;-79
2023/06/07 06:48:46;;;;;;;11.13;3.80;;;13.20;99.90;;;;;;5115273;28;20062;-80
2023/06/07 06:51:12;;;;;;;14.00;4.03;;;13.20;99.90;;;;;;5114804;28;20047;-80
2023/06/07 06:53:37;;;;;;;8.45;3.80;;;13.40;99.90;;;;;;5116137;28;20035;-80
2023/06/07 06:56:03;;;;;;;10.48;3.72;;;13.60;99.90;;;;;;5114840;28;20035;-80
2023/06/07 06:58:34;;;;;;;14.60;4.18;;;13.60;99.90;;;;;;5114682;28;20610;-80
2023/06/07 07:01:00;;;;;;;13.23;3.38;;;13.60;99.90;;;;;;5114973;28;20380;-79
2023/06/07 07:03:26;;;;;;;7.53;3.13;;;13.70;99.90;;;;;;5116263;28;20111;-80
2023/06/07 07:05:52;;;;;;;11.20;3.85;;;13.80;99.90;;;;;;5114760;28;20094;-80
2023/06/07 07:08:18;;;;;;;11.90;3.97;;;13.90;99.90;;;;;;5115825;28;20555;-82
2023/06/07 07:10:44;;;;;;;13.35;4.30;;;13.90;99.90;;;;;;5115983;28;20395;-80
2023/06/07 07:13:09;;;;;;;8.00;4.03;;;13.80;99.90;;;;;;5115839;28;20044;-80
2023/06/07 07:15:36;;;;;;;11.80;4.40;;;13.90;99.90;;;;;;5114369;28;20075;-81
2023/06/07 07:18:02;;;;;;;12.15;4.72;;;13.90;99.90;;;;;;5115667;28;20051;-80
2023/06/07 07:20:28;;;;;;;13.00;4.20;;;13.80;99.90;;;;;;5114404;28;20047;-79
2023/06/07 07:22:55;;;;;;;15.68;3.92;;;13.80;99.90;;;;;;5114364;28;20044;-80
2023/06/07 07:25:20;;;;;;;11.20;4.15;;;13.80;99.90;;;;;;5114522;28;20101;-80
2023/06/07 07:27:46;;;;;;;14.07;3.97;;;14.00;99.90;;;;;;5114009;28;20444;-79
2023/06/07 07:30:12;;;;;;;11.60;3.90;;;13.90;99.90;;;;;;5114001;28;20044;-79
2023/06/07 07:32:38;;;;;;;10.63;3.72;;;14.10;99.90;;;;;;5113903;28;20051;-79
2023/06/07 07:35:04;;;;;;;10.07;4.20;;;14.20;99.90;;;;;;5113831;28;20142;-79
2023/06/07 07:37:29;;;;;;;8.63;4.00;;;14.30;99.90;;;;;;5115291;28;20514;-80
2023/06/07 07:39:55;;;;;;;12.75;4.18;;;14.30;99.90;;;;;;5113753;28;20051;-79
2023/06/07 07:42:21;;;;;;;12.38;3.72;;;14.30;99.90;;;;;;5113969;28;20055;-80
2023/06/07 07:44:49;;;;;;;7.78;3.65;;;14.30;99.90;;;;;;5113542;28;20051;-79
2023/06/07 07:47:15;;;;;;;11.40;4.03;;;14.40;99.90;;;;;;5113713;28;20083;-80
2023/06/07 07:49:40;;;;;;;12.25;3.90;;;14.50;99.90;;;;;;5114848;28;20090;-80
2023/06/07 07:52:09;;;;;;;14.38;3.83;;;14.60;99.90;;;;;;5115290;28;20043;-79
2023/06/07 07:54:35;;;;;;;9.95;4.03;;;14.50;99.90;;;;;;5113684;28;20398;-79
2023/06/07 07:57:01;;;;;;;12.73;3.70;;;14.30;99.90;;;;;;5113827;28;20479;-80
2023/06/07 07:59:27;;;;;;;11.45;4.25;;;14.50;99.90;;;;;;5113549;28;20459;-80
2023/06/07 08:01:52;;;;;;;13.43;4.07;;;14.60;99.90;;;;;;5114966;28;20098;-79
2023/06/07 08:04:18;;;;;;;12.13;5.20;;;14.70;99.90;;;;;;5114761;28;20368;-80
2023/06/07 08:06:45;;;;;;;16.30;4.22;;;14.70;99.90;;;;;;5114710;28;20035;-80
2023/06/07 08:09:11;;;;;;;11.90;4.60;;;14.70;99.90;;;;;;5114468;28;20043;-80
2023/06/07 08:11:37;;;;;;;10.90;4.30;;;14.90;99.90;;;;;;5114672;28;20047;-80
2023/06/07 08:14:03;;;;;;;17.38;4.38;;;15.00;99.90;;;;;;5113470;28;20038;-80
2023/06/07 08:16:30;;;;;;;9.82;4.30;;;15.20;99.90;;;;;;5110857;28;20043;-79
2023/06/07 08:18:59;;;;;;;10.68;3.67;;;15.10;99.90;;;;;;5106740;28;20044;-80
2023/06/07 08:21:25;;;;;;;12.25;4.00;;;15.10;99.90;;;;;;5105842;28;20186;-79
2023/06/07 08:23:55;;;;;;;14.18;4.07;;;15.30;99.90;;;;;;5105698;28;20487;-79
2023/06/07 08:26:21;;;;;;;11.60;3.95;;;15.20;99.90;;;;;;5101674;28;20044;-77
2023/06/07 08:28:46;;;;;;;16.00;3.88;;;15.00;99.90;;;;;;5102873;28;20121;-79
2023/06/07 08:31:12;;;;;;;10.68;4.15;;;15.20;99.90;;;;;;5095208;28;20135;-80
2023/06/07 08:33:38;;;;;;;11.32;3.90;;;15.30;99.90;;;;;;5092580;28;20036;-77
2023/06/07 08:36:04;;;;;;;10.95;3.83;;;15.20;99.90;;;;;;5092540;28;20040;-80
2023/06/07 08:38:30;;;;;;;10.73;4.10;;;15.10;99.90;;;;;;5092187;28;20048;-79
2023/06/07 08:40:56;;;;;;;13.23;3.88;;;15.20;99.90;;;;;;5092790;28;20055;-80
2023/06/07 08:43:23;;;;;;;15.27;5.82;;;15.00;99.90;;;;;;5092784;28;20058;-78
2023/06/07 08:45:50;;;;;;;12.73;3.95;;;15.20;99.90;;;;;;5092228;28;20407;-79
2023/06/07 08:48:16;;;;;;;11.90;3.92;;;15.40;99.90;;;;;;5092465;28;20040;-78
2023/06/07 08:50:45;;;;;;;12.35;4.63;;;15.30;99.90;;;;;;5091465;28;20050;-78
2023/06/07 08:53:18;;;;;;;16.38;4.63;;;15.20;99.90;;;;;;5092273;28;20546;-79
2023/06/07 08:55:45;;;;;;;13.15;4.57;;;15.50;99.90;;;;;;5092205;28;20548;-79
2023/06/07 08:58:13;;;;;;;15.77;4.25;;;15.70;99.90;;;;;;5092237;28;20412;-78
2023/06/07 09:00:39;;;;;;;8.40;4.18;;;15.80;99.90;;;;;;5093678;28;20044;-80
2023/06/07 09:03:06;;;;;;;14.88;4.32;;;16.00;99.90;;;;;;5101678;28;20075;-79
2023/06/07 09:05:32;;;;;;;12.38;3.95;;;16.30;99.90;;;;;;5103885;28;20046;-79
2023/06/07 09:07:57;;;;;;;13.73;5.10;;;16.20;99.90;;;;;;5105764;28;20036;-79
2023/06/07 09:10:23;;;;;;;13.77;4.07;;;16.30;99.90;;;;;;5105504;28;20046;-77
2023/06/07 09:12:49;;;;;;;12.82;4.35;;;16.10;99.90;;;;;;5104260;28;20517;-79
2023/06/07 09:15:20;;;;;;;14.15;4.10;;;15.70;99.90;;;;;;5106522;28;20046;-79
2023/06/07 09:17:52;;;;;;;11.88;4.07;;;16.00;99.90;;;;;;5095193;28;20051;-79
2023/06/07 09:20:23;;;;;;;10.60;3.75;;;16.10;99.90;;;;;;5091900;28;20052;-79
2023/06/07 09:23:04;;;;;;;13.90;4.28;;;15.90;99.90;;;;;;5091955;28;20044;-79
2023/06/07 09:25:30;;;;;;;11.10;4.00;;;15.90;99.90;;;;;;5092258;28;20048;-77
2023/06/07 09:27:56;;;;;;;13.35;4.50;;;16.00;99.90;;;;;;5091873;28;20044;-79
2023/06/07 09:30:23;;;;;;;13.30;4.07;;;16.30;99.90;;;;;;5092041;28;20044;-79
2023/06/07 09:32:51;;;;;;;11.70;5.10;;;16.10;99.90;;;;;;5091818;28;20047;-79
2023/06/07 09:35:20;;;;;;;12.48;5.18;;;16.50;99.90;;;;;;5092113;28;20411;-79
2023/06/07 09:37:54;;;;;;;16.05;4.80;;;16.60;99.90;;;;;;5092106;28;20044;-79
2023/06/07 09:40:22;;;;;;;18.88;4.63;;;16.60;99.90;;;;;;5092050;28;20056;-79
2023/06/07 09:43:00;;;;;;;12.02;4.10;;;16.50;99.90;;;;;;5091761;28;20040;-79
2023/06/07 09:45:26;;;;;;;10.85;4.40;;;16.30;99.90;;;;;;5091607;28;20055;-79
2023/06/07 09:48:04;;;;;;;12.90;4.60;;;16.30;99.90;;;;;;5091715;28;20446;-80
2023/06/07 09:50:30;;;;;;;13.77;4.20;;;16.50;99.90;;;;;;5093225;28;20044;-77
2023/06/07 09:52:56;;;;;;;11.35;3.97;;;16.20;99.90;;;;;;5091966;28;20040;-77
2023/06/07 09:55:27;;;;;;;11.00;4.65;;;16.00;99.90;;;;;;5108255;28;20093;-77
2023/06/07 09:57:53;;;;;;;13.63;4.80;;;16.20;99.90;;;;;;5091886;28;20136;-78
2023/06/07 10:00:20;;;;;;;11.30;4.20;;;16.40;99.90;;;;;;5091616;28;20040;-79
2023/06/07 10:02:46;;;;;;;9.02;4.45;;;16.60;99.90;;;;;;5094568;28;20525;-78
2023/06/07 10:05:14;;;;;;;12.02;4.28;;;16.60;99.90;;;;;;5096771;28;20119;-79
2023/06/07 10:07:48;;;;;;;11.88;3.63;;;16.60;99.90;;;;;;5095618;28;20502;-79
2023/06/07 10:10:16;;;;;;;10.02;4.10;;;17.00;99.90;;;;;;5095479;28;20052;-79
2023/06/07 10:12:44;;;;;;;9.25;4.10;;;17.20;99.90;;;;;;5095220;28;20097;-80
2023/06/07 10:15:12;;;;;;;11.98;3.97;;;17.30;99.90;;;;;;5096725;28;20093;-78
2023/06/07 10:17:41;;;;;;;15.00;4.85;;;17.60;99.90;;;;;;5096546;28;20048;-79
2023/06/07 10:20:11;;;;;;;13.35;4.68;;;17.90;99.90;;;;;;5096568;28;20052;-79
2023/06/07 10:22:43;;;;;;;12.50;4.47;;;17.90;99.90;;;;;;5095345;28;20380;-78
2023/06/07 10:25:18;;;;;;;13.30;4.50;;;17.90;99.90;;;;;;5095016;28;20043;-78
2023/06/07 10:28:13;;;;;;;15.73;5.25;;;17.90;99.90;;;;;;5094905;28;20399;-79
2023/06/07 10:30:44;;;;;;;15.15;4.63;;;18.00;99.90;;;;;;5094880;28;20066;-79
2023/06/07 10:33:11;;;;;;;12.27;4.60;;;18.30;99.90;;;;;;5095123;28;20056;-79
2023/06/07 10:35:39;;;;;;;10.23;4.22;;;18.60;99.90;;;;;;5096069;28;20130;-79
2023/06/07 10:38:05;;;;;;;14.30;4.50;;;18.70;99.90;;;;;;5096182;28;20077;-78
2023/06/07 10:40:31;;;;;;;15.77;4.88;;;18.70;99.90;;;;;;5096238;28;20044;-79
2023/06/07 10:42:58;;;;;;;12.70;4.25;;;18.90;99.90;;;;;;5096032;28;20035;-79
2023/06/07 10:45:23;;;;;;;11.15;4.85;;;19.10;99.90;;;;;;5095685;28;20447;-79
2023/06/07 10:47:50;;;;;;;17.23;4.70;;;19.20;99.90;;;;;;5094590;28;20130;-79
2023/06/07 10:50:30;;;;;;;11.50;4.78;;;19.20;99.90;;;;;;5094550;28;20052;-78
2023/06/07 10:53:00;;;;;;;13.50;4.07;;;18.70;99.90;;;;;;5094524;28;20079;-79
2023/06/07 10:55:31;;;;;;;12.13;4.70;;;18.90;99.90;;;;;;5096018;28;20044;-79
2023/06/07 10:57:57;;;;;;;11.88;4.35;;;18.50;99.90;;;;;;5094573;28;20076;-78
2023/06/07 11:00:31;;;;;;;12.00;4.25;;;18.70;99.90;;;;;;5094295;28;20326;-78
2023/06/07 11:03:15;;;;;;;11.25;4.05;;;18.80;99.90;;;;;;5094218;28;20080;-78
2023/06/07 11:05:53;;;;;;;7.72;3.97;;;18.50;99.90;;;;;;5094387;28;20487;-78
2023/06/07 11:08:29;;;;;;;11.52;4.80;;;18.80;99.90;;;;;;5094053;28;20124;-79
2023/06/07 11:10:58;;;;;;;12.57;4.43;;;18.60;99.90;;;;;;5095757;28;20048;-79
2023/06/07 11:13:25;;;;;;;13.23;5.60;;;18.60;99.90;;;;;;5095074;28;20063;-78
2023/06/07 11:15:51;;;;;;;13.50;4.63;;;19.10;99.90;;;;;;5094242;28;20453;-78
2023/06/07 11:18:17;;;;;;;12.50;4.20;;;19.20;99.90;;;;;;5094091;28;20040;-79
2023/06/07 11:20:44;;;;;;;20.85;5.10;;;19.10;99.90;;;;;;5094189;28;20048;-77
2023/06/07 11:23:21;;;;;;;13.73;5.03;;;19.40;99.90;;;;;;5093948;28;20398;-78
2023/06/07 11:26:06;;;;;;;15.90;4.85;;;19.30;99.90;;;;;;5093963;28;20465;-78
2023/06/07 11:28:35;;;;;;;12.18;5.30;;;19.70;99.90;;;;;;5093954;28;20048;-79
2023/06/07 11:31:02;;;;;;;11.60;4.88;;;19.80;99.90;;;;;;5093677;28;20096;-78
2023/06/07 11:33:29;;;;;;;13.13;4.43;;;20.10;99.90;;;;;;5093929;28;20044;-79
2023/06/07 11:35:56;;;;;;;13.02;5.03;;;20.00;99.90;;;;;;5093706;28;20098;-78
2023/06/07 11:38:22;;;;;;;13.25;4.80;;;20.00;99.90;;;;;;5110901;28;20082;-78
2023/06/07 11:40:49;;;;;;;12.98;4.97;;;19.60;99.90;;;;;;5093933;28;20051;-79
2023/06/07 11:43:19;;;;;;;17.60;4.70;;;19.40;99.90;;;;;;5094826;28;20097;-78
2023/06/07 11:45:45;;;;;;;16.20;5.10;;;19.60;99.90;;;;;;5093413;28;20407;-78
2023/06/07 11:48:12;;;;;;;14.73;4.30;;;19.60;99.90;;;;;;5093477;28;20506;-79
2023/06/07 11:50:40;;;;;;;16.30;5.10;;;19.70;99.90;;;;;;5094771;28;20072;-76
2023/06/07 11:53:09;;;;;;;13.80;4.78;;;19.80;99.90;;;;;;5093508;28;20388;-82
2023/06/07 11:55:37;;;;;;;11.77;5.18;;;20.00;99.90;;;;;;5093653;28;20048;-77
2023/06/07 11:58:04;;;;;;;10.25;4.40;;;20.10;99.90;;;;;;5094522;28;20040;-77
2023/06/07 12:00:32;;;;;;;12.30;4.32;;;20.10;99.90;;;;;;5094974;28;20407;-79
2023/06/07 12:03:02;;;;;;;13.48;4.40;;;20.10;99.90;;;;;;5093470;28;20384;-77
2023/06/07 12:05:31;;;;;;;13.40;4.55;;;20.50;99.90;;;;;;5093374;28;20052;-80
2023/06/07 12:08:04;;;;;;;19.23;5.65;;;20.50;99.90;;;;;;5093337;28;20040;-80
2023/06/07 12:10:31;;;;;;;12.07;4.70;;;20.60;99.90;;;;;;5093009;28;20047;-80
2023/06/07 12:13:12;;;;;;;18.95;5.28;;;20.50;99.90;;;;;;5094388;28;20071;-80
2023/06/07 12:15:42;;;;;;;20.58;4.35;;;20.80;99.90;;;;;;5093356;28;20051;-82
2023/06/07 12:18:11;;;;;;;15.45;4.75;;;20.70;99.90;;;;;;5092871;28;20052;-81
2023/06/07 12:20:37;;;;;;;10.55;4.13;;;20.80;99.90;;;;;;5094423;28;20215;-75
2023/06/07 12:23:11;;;;;;;12.00;5.40;;;20.60;99.90;;;;;;5092690;28;20569;-81
2023/06/07 12:25:37;;;;;;;13.55;5.45;;;20.60;99.90;;;;;;5108717;28;20044;-80
2023/06/07 12:28:09;;;;;;;13.55;4.90;;;20.30;99.90;;;;;;5093958;28;20071;-81
2023/06/07 12:30:40;;;;;;;12.10;5.37;;;20.20;99.90;;;;;;5092782;28;20052;-78
2023/06/07 12:33:14;;;;;;;9.83;4.17;;;20.30;99.90;;;;;;5092962;28;20067;-77
2023/06/07 12:35:45;;;;;;;9.90;4.68;;;20.40;99.90;;;;;;5093882;28;20074;-79
2023/06/07 12:38:12;;;;;;;17.10;4.65;;;20.30;99.90;;;;;;5093719;28;20483;-80
2023/06/07 12:40:38;;;;;;;17.70;5.38;;;20.40;99.90;;;;;;5093817;28;20048;-77